createdAt,value
2019-04-21T00:01:55.967Z,8.18
2019-04-21T00:05:45.330Z,8.22
2019-04-21T00:09:52.305Z,8.12
2019-04-21T00:13:47.001Z,7.87
2019-04-21T00:17:29.911Z,7.73
2019-04-21T00:21:12.146Z,7.68
2019-04-21T00:25:01.022Z,7.31
2019-04-21T00:28:59.500Z,6.97
2019-04-21T00:32:55.054Z,6.78
2019-04-21T00:36:42.754Z,7.09
2019-04-21T00:40:46.391Z,7.33
2019-04-21T00:44:44.654Z,7.29
2019-04-21T00:48:45.678Z,7.17
2019-04-21T00:52:51.052Z,6.69
2019-04-21T00:56:56.741Z,6.43
2019-04-21T01:00:32.390Z,6.21
2019-04-21T01:04:42.837Z,6.1
2019-04-21T01:08:51.785Z,6.06
2019-04-21T01:12:49.508Z,6.05
2019-04-21T01:20:16.722Z,6.02
2019-04-21T01:23:48.595Z,6.01
2019-04-21T01:27:31.905Z,5.98
2019-04-21T01:31:40.414Z,5.95
2019-04-21T01:35:43.911Z,5.55
2019-04-21T01:39:51.560Z,5.51
2019-04-21T01:43:50.338Z,5.49
2019-04-21T01:47:49.169Z,5.32
2019-04-21T01:52:02.806Z,5.27
2019-04-21T01:56:44.488Z,5.26
2019-04-21T02:00:39.099Z,5.22
2019-04-21T02:04:42.931Z,5.22
2019-04-21T02:08:52.540Z,5.18
2019-04-21T02:12:50.914Z,4.85
2019-04-21T02:17:00.643Z,4.77
2019-04-21T02:20:55.376Z,4.83
2019-04-21T02:24:58.025Z,4.73
2019-04-21T02:29:02.048Z,4.45
2019-04-21T02:33:34.483Z,4.33
2019-04-21T02:38:30.727Z,4.42
2019-04-21T02:46:38.170Z,4.01
2019-04-21T02:50:37.599Z,3.84
2019-04-21T02:55:01.236Z,3.6
2019-04-21T02:59:12.484Z,3.39
2019-04-21T03:00:55.521Z,3.42
2019-04-21T03:05:30.517Z,3.36
2019-04-21T03:13:29.835Z,3.26
2019-04-21T03:17:48.750Z,3.47
2019-04-21T03:25:41.735Z,6.34
2019-04-21T03:29:55.100Z,7.08
2019-04-21T03:38:16.757Z,7.73
2019-04-21T03:42:41.694Z,7.98
2019-04-21T03:47:04.432Z,8.18
2019-04-21T03:59:26.412Z,8.48
2019-04-21T04:04:14.971Z,8.55
2019-04-21T04:12:22.594Z,8.74
2019-04-21T04:16:49.059Z,8.8
2019-04-21T04:35:54.280Z,9.14
2019-04-21T04:40:28.137Z,9.24
2019-04-21T04:44:59.728Z,9.29
2019-04-21T04:49:41.474Z,9.31
2019-04-21T04:53:47.380Z,9.41
2019-04-21T04:58:04.752Z,9.46
2019-04-21T05:00:48.336Z,9.53
2019-04-21T05:08:56.009Z,9.59
2019-04-21T05:13:06.475Z,9.67
2019-04-21T05:20:52.261Z,9.74
2019-04-21T05:25:04.588Z,9.82
2019-04-21T05:28:56.806Z,9.92
2019-04-21T05:33:00.093Z,10.05
2019-04-21T05:37:01.359Z,10.18
2019-04-21T05:40:55.204Z,10.28
2019-04-21T05:45:04.341Z,10.38
2019-04-21T05:49:14.160Z,10.48
2019-04-21T05:53:29.515Z,10.68
2019-04-21T05:57:32.383Z,10.8
2019-04-21T06:01:33.074Z,10.85
2019-04-21T06:05:44.605Z,10.95
2019-04-21T06:09:56.899Z,11.08
2019-04-21T06:13:55.451Z,11.08
2019-04-21T06:17:58.126Z,11.29
2019-04-21T06:22:07.731Z,11.46
2019-04-21T06:29:50.103Z,11.76
2019-04-21T06:33:48.877Z,11.91
2019-04-21T06:37:59.873Z,12.07
2019-04-21T06:42:05.675Z,12.18
2019-04-21T06:46:17.830Z,12.28
2019-04-21T06:50:14.578Z,12.29
2019-04-21T06:54:23.496Z,12.2
2019-04-21T07:00:38.430Z,12.49
2019-04-21T07:08:21.718Z,12.41
2019-04-21T07:12:37.122Z,12.47
2019-04-21T07:16:40.466Z,12.62
2019-04-21T07:20:42.311Z,12.8
2019-04-21T07:24:44.508Z,13.01
2019-04-21T07:32:20.939Z,13.39
2019-04-21T07:40:03.688Z,13.39
2019-04-21T07:44:22.847Z,13.61
2019-04-21T07:48:29.700Z,13.67
2019-04-21T07:52:28.236Z,13.85
2019-04-21T07:56:17.844Z,13.57
2019-04-21T08:00:20.608Z,13.76
2019-04-21T08:04:37.875Z,13.92
2019-04-21T08:12:09.851Z,13.93
2019-04-21T08:16:20.058Z,14.02
2019-04-21T08:23:55.352Z,14.3
2019-04-21T08:27:59.808Z,14.74
2019-04-21T08:36:07.675Z,14.84
2019-04-21T08:40:17.663Z,14.79
2019-04-21T08:44:30.005Z,14.62
2019-04-21T08:48:40.419Z,14.82
2019-04-21T08:52:50.939Z,15.29
2019-04-21T08:58:22.702Z,15.44
2019-04-21T09:00:41.681Z,15.24
2019-04-21T09:04:49.932Z,15.48
2019-04-21T09:08:46.192Z,15.45
2019-04-21T09:12:49.140Z,15.56
2019-04-21T09:16:47.656Z,15.59
2019-04-21T09:20:55.371Z,15.71
2019-04-21T09:24:55.960Z,15.82
2019-04-21T09:32:20.357Z,16.48
2019-04-21T09:35:58.869Z,16.21
2019-04-21T09:39:33.283Z,16.36
2019-04-21T09:43:10.327Z,16.98
2019-04-21T09:46:49.746Z,17.14
2019-04-21T09:50:24.324Z,16.57
2019-04-21T09:54:02.030Z,16.46
2019-04-21T09:57:44.753Z,16.57
2019-04-21T10:01:28.257Z,16.67
2019-04-21T10:05:05.331Z,17.05
2019-04-21T10:08:36.378Z,17.17
2019-04-21T10:12:07.511Z,16.65
2019-04-21T10:15:37.757Z,16.23
2019-04-21T10:19:08.877Z,15.94
2019-04-21T10:22:39.357Z,15.85
2019-04-21T10:26:10.476Z,15.8
2019-04-21T10:29:43.137Z,15.59
2019-04-21T10:33:16.568Z,15.43
2019-04-21T10:36:47.062Z,15.17
2019-04-21T10:40:18.006Z,14.93
2019-04-21T10:43:49.326Z,14.77
2019-04-21T10:47:20.653Z,14.5
2019-04-21T10:50:50.775Z,14.32
2019-04-21T10:54:21.886Z,14.63
2019-04-21T10:58:20.313Z,15.15
2019-04-21T11:00:17.555Z,15.14
2019-04-21T11:04:19.975Z,15.52
2019-04-21T11:08:05.967Z,15.64
2019-04-21T11:11:45.001Z,15.45
2019-04-21T11:15:17.181Z,14.7
2019-04-21T11:18:48.299Z,14.25
2019-04-21T11:22:18.923Z,14.18
2019-04-21T11:25:49.546Z,14.49
2019-04-21T11:29:21.127Z,14.26
2019-04-21T11:32:51.310Z,14.29
2019-04-21T11:36:22.471Z,14.35
2019-04-21T11:40:00.329Z,14.35
2019-04-21T11:43:36.953Z,14.32
2019-04-21T11:47:12.153Z,14.59
2019-04-21T11:50:43.338Z,14.81
2019-04-21T11:54:13.482Z,15.65
2019-04-21T11:57:46.359Z,16.18
2019-04-21T12:01:18.659Z,16.18
2019-04-21T12:04:49.520Z,16.6
2019-04-21T12:08:27.398Z,17.64
2019-04-21T12:12:03.418Z,18.21
2019-04-21T12:15:34.641Z,17.92
2019-04-21T12:19:05.218Z,18.32
2019-04-21T12:22:35.733Z,17.37
2019-04-21T12:26:07.395Z,17.13
2019-04-21T12:29:37.859Z,17.02
2019-04-21T12:33:12.285Z,17.21
2019-04-21T12:36:43.720Z,17.87
2019-04-21T12:40:14.758Z,18.4
2019-04-21T12:43:44.932Z,18.8
2019-04-21T12:47:16.175Z,19.35
2019-04-21T12:50:47.831Z,19.63
2019-04-21T12:54:19.533Z,19.73
2019-04-21T12:57:49.754Z,19.5
2019-04-21T13:00:20.707Z,19.48
2019-04-21T13:03:52.125Z,19.67
2019-04-21T13:07:23.482Z,19.24
2019-04-21T13:10:53.951Z,18.84
2019-04-21T13:14:24.209Z,18.39
2019-04-21T13:17:54.386Z,18.37
2019-04-21T13:21:24.487Z,17.79
2019-04-21T13:24:55.593Z,17.52
2019-04-21T13:28:26.060Z,17.28
2019-04-21T13:31:56.300Z,16.89
2019-04-21T13:35:26.733Z,16.41
2019-04-21T13:39:52.249Z,16.17
2019-04-21T13:43:32.991Z,16.2
2019-04-21T13:47:04.770Z,16.11
2019-04-21T13:50:35.290Z,17.14
2019-04-21T13:54:05.489Z,17.77
2019-04-21T13:57:36.600Z,17.84
2019-04-21T14:01:07.729Z,17.78
2019-04-21T14:04:38.072Z,18.72
2019-04-21T14:08:09.267Z,19.16
2019-04-21T14:11:39.475Z,20.31
2019-04-21T14:15:22.191Z,19.35
2019-04-21T14:18:52.372Z,18.25
2019-04-21T14:22:24.150Z,17.73
2019-04-21T14:25:55.470Z,16.83
2019-04-21T14:29:25.816Z,16.1
2019-04-21T14:32:56.226Z,15.69
2019-04-21T14:36:26.581Z,15.09
2019-04-21T14:40:06.195Z,14.51
2019-04-21T14:43:38.506Z,13.95
2019-04-21T14:47:25.169Z,14.06
2019-04-21T14:51:34.914Z,14.48
2019-04-21T14:55:16.725Z,16.38
2019-04-21T14:58:47.098Z,16.21
2019-04-21T15:00:18.958Z,15.95
2019-04-21T15:03:50.016Z,15.3
2019-04-21T15:07:21.345Z,15.33
2019-04-21T15:10:52.678Z,16.11
2019-04-21T15:14:24.104Z,16.36
2019-04-21T15:17:55.621Z,16.29
2019-04-21T15:21:25.898Z,16.02
2019-04-21T15:24:56.318Z,16.07
2019-04-21T15:28:31.642Z,16.28
2019-04-21T15:32:02.599Z,16.54
2019-04-21T15:35:33.075Z,16.24
2019-04-21T15:39:05.738Z,15.63
2019-04-21T15:42:38.825Z,15.57
2019-04-21T15:46:08.868Z,15.47
2019-04-21T15:50:02.543Z,14.64
2019-04-21T15:53:35.563Z,13.99
2019-04-21T15:57:13.888Z,13.6
2019-04-21T16:00:50.354Z,13.37
2019-04-21T16:04:20.876Z,13.17
2019-04-21T16:07:52.011Z,13.13
2019-04-21T16:11:22.211Z,13.14
2019-04-21T16:14:52.571Z,13.54
2019-04-21T16:18:22.713Z,14.12
2019-04-21T16:21:52.909Z,14.35
2019-04-21T16:25:23.208Z,14.41
2019-04-21T16:28:53.351Z,13.84
2019-04-21T16:32:24.032Z,13.44
2019-04-21T16:35:54.125Z,13.19
2019-04-21T16:39:25.308Z,13.18
2019-04-21T16:42:56.355Z,13.15
2019-04-21T16:46:27.432Z,13.16
2019-04-21T16:49:57.941Z,13.05
2019-04-21T16:53:34.089Z,12.83
2019-04-21T16:57:12.616Z,12.62
2019-04-21T17:00:34.092Z,12.39
2019-04-21T17:04:08.487Z,12.04
2019-04-21T17:07:38.822Z,11.8
2019-04-21T17:11:18.531Z,11.53
2019-04-21T17:15:08.109Z,11.3
2019-04-21T17:18:56.301Z,10.95
2019-04-21T17:22:31.715Z,10.61
2019-04-21T17:26:03.306Z,10.42
2019-04-21T17:29:34.575Z,10.26
2019-04-21T17:33:05.661Z,10.14
2019-04-21T17:36:37.119Z,10.02
2019-04-21T17:40:09.023Z,9.97
2019-04-21T17:43:41.624Z,9.93
2019-04-21T17:47:25.315Z,9.89
2019-04-21T17:51:03.451Z,9.76
2019-04-21T17:54:43.619Z,9.58
2019-04-21T17:58:36.289Z,9.44
2019-04-21T18:02:46.040Z,9.39
2019-04-21T18:07:04.820Z,9.28
2019-04-21T18:10:54.431Z,9.17
2019-04-21T18:14:32.676Z,9.08
2019-04-21T18:18:03.062Z,9.06
2019-04-21T18:21:48.344Z,9.07
2019-04-21T18:25:37.622Z,9.05
2019-04-21T18:29:15.970Z,8.98
2019-04-21T18:32:46.185Z,8.84
2019-04-21T18:36:29.263Z,8.82
2019-04-21T18:40:12.297Z,8.73
2019-04-21T18:44:19.442Z,8.67
2019-04-21T18:48:18.968Z,8.67
2019-04-21T18:52:17.118Z,8.66
2019-04-21T18:56:01.336Z,8.66
2019-04-21T18:59:39.771Z,8.67
2019-04-21T19:00:23.438Z,8.66
2019-04-21T19:04:00.410Z,8.61
2019-04-21T19:07:45.494Z,8.65
2019-04-21T19:11:42.982Z,8.54
2019-04-21T19:15:48.152Z,8.6
2019-04-21T19:20:10.427Z,8.67
2019-04-21T19:24:18.183Z,8.78
2019-04-21T19:28:06.448Z,8.84
2019-04-21T19:32:04.441Z,8.84
2019-04-21T19:35:49.925Z,8.69
2019-04-21T19:39:36.167Z,8.69
2019-04-21T19:43:37.073Z,8.65
2019-04-21T19:47:45.099Z,8.62
2019-04-21T19:51:41.616Z,8.59
2019-04-21T19:55:20.398Z,8.47
2019-04-21T19:58:50.852Z,8.39
2019-04-21T20:02:22.358Z,8.37
2019-04-21T20:05:59.478Z,8.35
2019-04-21T20:09:56.399Z,8.33
2019-04-21T20:14:13.777Z,8.26
2019-04-21T20:18:22.534Z,8.03
2019-04-21T20:21:58.866Z,7.93
2019-04-21T20:25:30.958Z,7.96
2019-04-21T20:29:21.821Z,7.82
2019-04-21T20:33:42.795Z,7.83
2019-04-21T20:37:42.437Z,7.87
2019-04-21T20:41:40.623Z,7.85
2019-04-21T20:45:45.816Z,7.89
2019-04-21T20:49:38.507Z,7.89
2019-04-21T20:53:37.943Z,7.88
2019-04-21T20:57:29.951Z,7.92
2019-04-21T21:00:45.907Z,7.98
2019-04-21T21:04:37.052Z,7.84
2019-04-21T21:08:31.178Z,7.86
2019-04-21T21:12:41.702Z,7.92
2019-04-21T21:16:47.597Z,7.99
2019-04-21T21:20:49.888Z,8.03
2019-04-21T21:24:50.581Z,8.09
2019-04-21T21:28:52.517Z,8.11
2019-04-21T21:32:51.112Z,8.09
2019-04-21T21:36:47.689Z,8.11
2019-04-21T21:40:36.634Z,8.09
2019-04-21T21:44:17.801Z,8.11
2019-04-21T21:48:04.510Z,8.22
2019-04-21T21:52:01.050Z,8.22
2019-04-21T21:55:40.565Z,8.1
2019-04-21T21:59:16.506Z,8.08
2019-04-21T22:02:56.597Z,8.03
2019-04-21T22:06:39.952Z,8.08
2019-04-21T22:10:17.992Z,8.03
2019-04-21T22:13:55.697Z,8
2019-04-21T22:17:44.695Z,7.92
2019-04-21T22:21:49.359Z,7.79
2019-04-21T22:25:32.024Z,7.71
2019-04-21T22:29:05.607Z,7.55
2019-04-21T22:32:36.860Z,7.42
2019-04-21T22:36:21.046Z,7.29
2019-04-21T22:40:15.716Z,7.27
2019-04-21T22:43:55.227Z,7.31
2019-04-21T22:47:32.194Z,7.33
2019-04-21T22:51:07.342Z,7.45
2019-04-21T22:54:44.860Z,7.39
2019-04-21T22:58:24.810Z,7.31
2019-04-21T23:00:19.197Z,7.39
2019-04-21T23:03:53.618Z,7.43
2019-04-21T23:07:28.600Z,7.48
2019-04-21T23:11:02.746Z,7.33
2019-04-21T23:14:45.256Z,7.3
2019-04-21T23:18:36.056Z,7.36
2019-04-21T23:22:27.585Z,7.3
2019-04-21T23:26:29.832Z,7.3
2019-04-21T23:30:34.410Z,7.36
2019-04-21T23:34:20.890Z,7.31
2019-04-21T23:38:01.404Z,7.39
2019-04-21T23:41:41.425Z,7.4
2019-04-21T23:45:18.347Z,7.39
2019-04-21T23:49:08.556Z,7.31
2019-04-21T23:52:45.721Z,7.22
2019-04-21T23:56:21.655Z,7.15
2019-04-21T23:59:59.638Z,7.03
